Salishan — WUT4384 — position and weather

sailwx.info

Track history (hours):
 
Tides and Currents Weather Stations Pressure Air Temp Water Temp Dewpoint Dewpoint Depression Visibility Wind Speed Wind Dir Waves Ship Positions

Salishan

Owner: Sause Bros. Inc., COOS BAY, OR. More information available from US FCC via Universal Licensing System and Coast Guard Vessel Documentation Center.

Last reported at 2014-Dec-14 16:29 UTC. Time now 2014-Dec-17 19:57 UTC.
Position N 45°35' W 124°45'.

MMSI: 367007912.

Date/timePositionNaut miles runAvg speedWind from/ knotsBaromVisibWave heightAir tempDewpointWater temp
2014-Dec-14 16:29N 45°35' W 124°45'5 5.8
2014-Dec-14 15:33N 45°40' W 124°45'5 5.5
2014-Dec-14 14:33N 45°46' W 124°45'6 5.5
2014-Dec-14 13:33N 45°51' W 124°46'6 5.7
2014-Dec-14 12:33N 45°57' W 124°47'6 5.6
2014-Dec-14 11:34N 46°03' W 124°47'6 5.5
2014-Dec-14 10:33N 46°08' W 124°49'6 5.8
2014-Dec-14 09:33N 46°13' W 124°52'6 6.1
2014-Dec-14 08:33N 46°19' W 124°54'7 6.6
2014-Dec-14 07:33N 46°26' W 124°57'7 7.1
2014-Dec-14 06:34N 46°32' W 125°01'7 7.1
2014-Dec-14 05:33N 46°39' W 125°04'7 6.8
2014-Dec-14 04:33N 46°45' W 125°07'7 6.8
2014-Dec-14 03:33N 46°52' W 125°10'96 6.0
2014-Dec-13 11:33N 48°27' W 124°53'7 7.0
2014-Dec-13 10:31N 48°26' W 124°42'7 7.4
2014-Dec-13 09:34N 48°23' W 124°32'7 7.2
2014-Dec-13 08:33N 48°20' W 124°23'7 6.7
2014-Dec-13 07:33N 48°17' W 124°13'7 6.5
2014-Dec-13 06:33N 48°15' W 124°04'7 6.8
2014-Dec-13 05:33N 48°12' W 123°55'7 7.3
2014-Dec-13 04:33N 48°12' W 123°44'7 6.8
2014-Dec-13 03:33N 48°12' W 123°34'6 6.0
2014-Dec-13 02:32N 48°12' W 123°25'6 6.3
2014-Dec-13 01:33N 48°12' W 123°16'6 6.4
2014-Dec-13 00:33N 48°13' W 123°06'7 6.8
2014-Dec-12 23:32N 48°12' W 122°56'9 8.1
2014-Dec-12 22:28N 48°09' W 122°43'9 8.9
2014-Dec-12 21:30N 48°02' W 122°37'8 9.0
2014-Dec-12 20:33N 47°55' W 122°29'8 8.1
2014-Dec-12 19:34N 47°48' W 122°26'8 8.1
2014-Dec-12 18:33N 47°40' W 122°27'8 7.8
2014-Dec-12 17:34N 47°32' W 122°25'7 7.4
2014-Dec-12 16:34N 47°25' W 122°22'6 6.4
2014-Dec-12 15:34N 47°19' W 122°27'3 3.0
2014-Dec-12 14:33N 47°17' W 122°25'1 0.7
2014-Dec-12 13:03N 47°16' W 122°24'0 0.0
2014-Dec-12 12:33N 47°16' W 122°24'0 0.0
2014-Dec-12 11:24N 47°16' W 122°24'0 0.0
2014-Dec-12 10:30N 47°16' W 122°24'0 0.0
2014-Dec-12 09:06N 47°16' W 122°24'0 0.0
2014-Dec-12 08:30N 47°16' W 122°24'0 0.0
2014-Dec-12 07:30N 47°16' W 122°24'0 0.0
2014-Dec-12 06:33N 47°16' W 122°24'0 0.0
2014-Dec-12 05:24N 47°16' W 122°24'0 0.0
2014-Dec-12 04:18N 47°16' W 122°24'0 0.0
2014-Dec-12 03:18N 47°16' W 122°24'0 0.0
2014-Dec-12 02:24N 47°16' W 122°24'0 0.0
2014-Dec-12 01:24N 47°16' W 122°24'0 0.0
2014-Dec-12 00:12N 47°16' W 122°24'0 0.0
2014-Dec-11 23:09N 47°16' W 122°24'0 0.0
2014-Dec-11 22:30N 47°16' W 122°24'0 0.0
2014-Dec-11 21:33N 47°16' W 122°24'0 0.0
2014-Dec-11 20:33N 47°16' W 122°24'0 0.0
2014-Dec-11 19:18N 47°16' W 122°24'0 0.0
2014-Dec-11 18:27N 47°16' W 122°24'0 0.0
2014-Dec-11 17:27N 47°16' W 122°24'0 0.0
2014-Dec-11 14:27N 47°16' W 122°24'1 0.6
2014-Dec-11 12:32N 47°17' W 122°25'1 0.5
2014-Dec-11 11:29N 47°16' W 122°25'0 0.0
2014-Dec-11 10:29N 47°16' W 122°25'0 0.0
2014-Dec-11 09:32N 47°16' W 122°25'0 0.0
2014-Dec-11 08:32N 47°16' W 122°25'0 0.0
2014-Dec-11 07:20N 47°16' W 122°25'0 0.0
2014-Dec-11 05:22N 47°16' W 122°25'0 0.0
2014-Dec-11 04:28N 47°16' W 122°25'0 0.0
2014-Dec-11 02:16N 47°16' W 122°25'0 0.0
2014-Dec-11 01:31N 47°16' W 122°25'0 0.0
2014-Dec-11 00:31N 47°16' W 122°25'0 0.0
2014-Dec-10 18:10N 47°16' W 122°25'1 0.9
2014-Dec-10 17:33N 47°16' W 122°24'1 1.0
2014-Dec-10 16:25N 47°15' W 122°23'0 0.0
2014-Dec-10 15:31N 47°15' W 122°23'0 0.0
2014-Dec-10 14:31N 47°15' W 122°23'0 0.0
2014-Dec-10 13:31N 47°15' W 122°23'0 0.0
2014-Dec-10 12:31N 47°15' W 122°23'0 0.0
2014-Dec-10 11:31N 47°15' W 122°23'0 0.0
2014-Dec-10 10:31N 47°15' W 122°23'0 0.0
2014-Dec-10 09:31N 47°15' W 122°23'0 0.0
2014-Dec-10 08:31N 47°15' W 122°23'0 0.0
2014-Dec-10 07:31N 47°15' W 122°23'0 0.0
2014-Dec-10 06:31N 47°15' W 122°23'0 0.0
2014-Dec-10 05:31N 47°15' W 122°23'0 0.0
2014-Dec-10 04:25N 47°15' W 122°23'0 0.0
2014-Dec-10 03:31N 47°15' W 122°23'0 0.0
2014-Dec-10 02:31N 47°15' W 122°23'0 0.0
2014-Dec-10 01:31N 47°15' W 122°23'0 0.0
2014-Dec-10 00:31N 47°15' W 122°23'0 0.0
2014-Dec-09 23:28N 47°15' W 122°23'0 0.0
2014-Dec-09 22:31N 47°15' W 122°23'2 2.3
2014-Dec-09 21:33N 47°17' W 122°25'3 0.8
2014-Dec-09 18:18N 47°16' W 122°22'0 0.0
2014-Dec-09 17:24N 47°16' W 122°22'0 0.0
2014-Dec-09 16:06N 47°16' W 122°22'0 0.0
2014-Dec-09 15:33N 47°16' W 122°22'0 0.0
2014-Dec-09 14:24N 47°16' W 122°22'0 0.0
2014-Dec-09 13:21N 47°16' W 122°22'0 0.0
2014-Dec-09 12:30N 47°16' W 122°22'0 0.0
2014-Dec-09 11:30N 47°16' W 122°22'0 0.0
2014-Dec-09 10:24N 47°16' W 122°22'0 0.0
2014-Dec-09 09:30N 47°16' W 122°22'0 0.0
2014-Dec-09 08:33N 47°16' W 122°22'0 0.0
2014-Dec-09 07:30N 47°16' W 122°22'0 0.0
2014-Dec-09 03:24N 47°16' W 122°22'0 0.0
2014-Dec-09 02:21N 47°16' W 122°22'0 0.0
2014-Dec-09 01:33N 47°16' W 122°22'0 0.0
2014-Dec-09 00:33N 47°16' W 122°22'0 0.0
2014-Dec-08 23:15N 47°16' W 122°22'0 0.0
2014-Dec-08 22:21N 47°16' W 122°22'0 0.0
2014-Dec-08 21:27N 47°16' W 122°22'0 0.0
2014-Dec-08 20:27N 47°16' W 122°22'0 0.0
2014-Dec-08 19:09N 47°16' W 122°22'0 0.0
2014-Dec-08 18:33N 47°16' W 122°22'0 0.0
2014-Dec-08 17:21N 47°16' W 122°22'0 0.0
2014-Dec-08 16:15N 47°16' W 122°22'0 0.0
2014-Dec-08 15:21N 47°16' W 122°22'0 0.0
2014-Dec-08 14:27N 47°16' W 122°22'0 0.0
2014-Dec-08 00:14N 47°16' W 122°22'0 0.0
2014-Dec-07 22:26N 47°16' W 122°22'0 0.0
2014-Dec-07 21:14N 47°16' W 122°22'0 0.0
2014-Dec-07 18:08N 47°16' W 122°22'0 0.0
2014-Dec-07 17:32N 47°16' W 122°22'0 0.0
2014-Dec-07 16:32N 47°16' W 122°22'0 0.0
2014-Dec-07 15:26N 47°16' W 122°22'0 0.0
2014-Dec-07 12:32N 47°16' W 122°22'0 0.0
2014-Dec-07 11:05N 47°16' W 122°22'0 0.0
2014-Dec-07 10:29N 47°16' W 122°22'0 0.0
2014-Dec-07 09:17N 47°16' W 122°22'0 0.0
2014-Dec-07 08:29N 47°16' W 122°22'0 0.0
2014-Dec-07 07:29N 47°16' W 122°22'0 0.0
2014-Dec-07 05:05N 47°16' W 122°22'0 0.0
2014-Dec-07 03:29N 47°16' W 122°22'0 0.0
2014-Dec-07 00:27N 47°16' W 122°22'0 0.0
2014-Dec-06 20:31N 47°16' W 122°22'0 0.0
2014-Dec-06 19:33N 47°16' W 122°22'0 0.0
2014-Dec-06 18:33N 47°16' W 122°22'1 1.3
2014-Dec-06 17:29N 47°16' W 122°24'1 0.6
2014-Dec-06 16:33N 47°16' W 122°24'2 1.9
2014-Dec-06 15:31N 47°16' W 122°22'0 0.1
2014-Dec-06 14:27N 47°16' W 122°22'0 0.0
2014-Dec-06 12:21N 47°16' W 122°22'0 0.0
2014-Dec-05 11:26N 47°16' W 122°22'0 0.0
2014-Dec-05 10:32N 47°16' W 122°22'0 0.0
2014-Dec-05 09:05N 47°16' W 122°22'  
Track history (hours):
 
Tides and Currents Weather Stations Pressure Air Temp Water Temp Dewpoint Dewpoint Depression Visibility Wind Speed Wind Dir Waves Ship Positions

Salishan

Owner: Sause Bros. Inc., COOS BAY, OR. More information available from US FCC via Universal Licensing System and Coast Guard Vessel Documentation Center.

Last reported at 2014-Dec-14 16:29 UTC. Time now 2014-Dec-17 19:57 UTC.
Position N 45°35' W 124°45'.

MMSI: 367007912.

Date/timePositionNaut miles runAvg speedWind from/ knotsBaromVisibWave heightAir tempDewpointWater temp
2014-Dec-14 16:29N 45°35' W 124°45'5 5.8
2014-Dec-14 15:33N 45°40' W 124°45'5 5.5
2014-Dec-14 14:33N 45°46' W 124°45'6 5.5
2014-Dec-14 13:33N 45°51' W 124°46'6 5.7
2014-Dec-14 12:33N 45°57' W 124°47'6 5.6
2014-Dec-14 11:34N 46°03' W 124°47'6 5.5
2014-Dec-14 10:33N 46°08' W 124°49'6 5.8
2014-Dec-14 09:33N 46°13' W 124°52'6 6.1
2014-Dec-14 08:33N 46°19' W 124°54'7 6.6
2014-Dec-14 07:33N 46°26' W 124°57'7 7.1
2014-Dec-14 06:34N 46°32' W 125°01'7 7.1
2014-Dec-14 05:33N 46°39' W 125°04'7 6.8
2014-Dec-14 04:33N 46°45' W 125°07'7 6.8
2014-Dec-14 03:33N 46°52' W 125°10'96 6.0
2014-Dec-13 11:33N 48°27' W 124°53'7 7.0
2014-Dec-13 10:31N 48°26' W 124°42'7 7.4
2014-Dec-13 09:34N 48°23' W 124°32'7 7.2
2014-Dec-13 08:33N 48°20' W 124°23'7 6.7
2014-Dec-13 07:33N 48°17' W 124°13'7 6.5
2014-Dec-13 06:33N 48°15' W 124°04'7 6.8
2014-Dec-13 05:33N 48°12' W 123°55'7 7.3
2014-Dec-13 04:33N 48°12' W 123°44'7 6.8
2014-Dec-13 03:33N 48°12' W 123°34'6 6.0
2014-Dec-13 02:32N 48°12' W 123°25'6 6.3
2014-Dec-13 01:33N 48°12' W 123°16'6 6.4
2014-Dec-13 00:33N 48°13' W 123°06'7 6.8
2014-Dec-12 23:32N 48°12' W 122°56'9 8.1
2014-Dec-12 22:28N 48°09' W 122°43'9 8.9
2014-Dec-12 21:30N 48°02' W 122°37'8 9.0
2014-Dec-12 20:33N 47°55' W 122°29'8 8.1
2014-Dec-12 19:34N 47°48' W 122°26'8 8.1
2014-Dec-12 18:33N 47°40' W 122°27'8 7.8
2014-Dec-12 17:34N 47°32' W 122°25'7 7.4
2014-Dec-12 16:34N 47°25' W 122°22'6 6.4
2014-Dec-12 15:34N 47°19' W 122°27'3 3.0
2014-Dec-12 14:33N 47°17' W 122°25'1 0.7
2014-Dec-12 13:03N 47°16' W 122°24'0 0.0
2014-Dec-12 12:33N 47°16' W 122°24'0 0.0
2014-Dec-12 11:24N 47°16' W 122°24'0 0.0
2014-Dec-12 10:30N 47°16' W 122°24'0 0.0
2014-Dec-12 09:06N 47°16' W 122°24'0 0.0
2014-Dec-12 08:30N 47°16' W 122°24'0 0.0
2014-Dec-12 07:30N 47°16' W 122°24'0 0.0
2014-Dec-12 06:33N 47°16' W 122°24'0 0.0
2014-Dec-12 05:24N 47°16' W 122°24'0 0.0
2014-Dec-12 04:18N 47°16' W 122°24'0 0.0
2014-Dec-12 03:18N 47°16' W 122°24'0 0.0
2014-Dec-12 02:24N 47°16' W 122°24'0 0.0
2014-Dec-12 01:24N 47°16' W 122°24'0 0.0
2014-Dec-12 00:12N 47°16' W 122°24'0 0.0
2014-Dec-11 23:09N 47°16' W 122°24'0 0.0
2014-Dec-11 22:30N 47°16' W 122°24'0 0.0
2014-Dec-11 21:33N 47°16' W 122°24'0 0.0
2014-Dec-11 20:33N 47°16' W 122°24'0 0.0
2014-Dec-11 19:18N 47°16' W 122°24'0 0.0
2014-Dec-11 18:27N 47°16' W 122°24'0 0.0
2014-Dec-11 17:27N 47°16' W 122°24'0 0.0
2014-Dec-11 14:27N 47°16' W 122°24'1 0.6
2014-Dec-11 12:32N 47°17' W 122°25'1 0.5
2014-Dec-11 11:29N 47°16' W 122°25'0 0.0
2014-Dec-11 10:29N 47°16' W 122°25'0 0.0
2014-Dec-11 09:32N 47°16' W 122°25'0 0.0
2014-Dec-11 08:32N 47°16' W 122°25'0 0.0
2014-Dec-11 07:20N 47°16' W 122°25'0 0.0
2014-Dec-11 05:22N 47°16' W 122°25'0 0.0
2014-Dec-11 04:28N 47°16' W 122°25'0 0.0
2014-Dec-11 02:16N 47°16' W 122°25'0 0.0
2014-Dec-11 01:31N 47°16' W 122°25'0 0.0
2014-Dec-11 00:31N 47°16' W 122°25'0 0.0
2014-Dec-10 18:10N 47°16' W 122°25'1 0.9
2014-Dec-10 17:33N 47°16' W 122°24'1 1.0
2014-Dec-10 16:25N 47°15' W 122°23'0 0.0
2014-Dec-10 15:31N 47°15' W 122°23'0 0.0
2014-Dec-10 14:31N 47°15' W 122°23'0 0.0
2014-Dec-10 13:31N 47°15' W 122°23'0 0.0
2014-Dec-10 12:31N 47°15' W 122°23'0 0.0
2014-Dec-10 11:31N 47°15' W 122°23'0 0.0
2014-Dec-10 10:31N 47°15' W 122°23'0 0.0
2014-Dec-10 09:31N 47°15' W 122°23'0 0.0
2014-Dec-10 08:31N 47°15' W 122°23'0 0.0
2014-Dec-10 07:31N 47°15' W 122°23'0 0.0
2014-Dec-10 06:31N 47°15' W 122°23'0 0.0
2014-Dec-10 05:31N 47°15' W 122°23'0 0.0
2014-Dec-10 04:25N 47°15' W 122°23'0 0.0
2014-Dec-10 03:31N 47°15' W 122°23'0 0.0
2014-Dec-10 02:31N 47°15' W 122°23'0 0.0
2014-Dec-10 01:31N 47°15' W 122°23'0 0.0
2014-Dec-10 00:31N 47°15' W 122°23'0 0.0
2014-Dec-09 23:28N 47°15' W 122°23'0 0.0
2014-Dec-09 22:31N 47°15' W 122°23'2 2.3
2014-Dec-09 21:33N 47°17' W 122°25'3 0.8
2014-Dec-09 18:18N 47°16' W 122°22'0 0.0
2014-Dec-09 17:24N 47°16' W 122°22'0 0.0
2014-Dec-09 16:06N 47°16' W 122°22'0 0.0
2014-Dec-09 15:33N 47°16' W 122°22'0 0.0
2014-Dec-09 14:24N 47°16' W 122°22'0 0.0
2014-Dec-09 13:21N 47°16' W 122°22'0 0.0
2014-Dec-09 12:30N 47°16' W 122°22'0 0.0
2014-Dec-09 11:30N 47°16' W 122°22'0 0.0
2014-Dec-09 10:24N 47°16' W 122°22'0 0.0
2014-Dec-09 09:30N 47°16' W 122°22'0 0.0
2014-Dec-09 08:33N 47°16' W 122°22'0 0.0
2014-Dec-09 07:30N 47°16' W 122°22'0 0.0
2014-Dec-09 03:24N 47°16' W 122°22'0 0.0
2014-Dec-09 02:21N 47°16' W 122°22'0 0.0
2014-Dec-09 01:33N 47°16' W 122°22'0 0.0
2014-Dec-09 00:33N 47°16' W 122°22'0 0.0
2014-Dec-08 23:15N 47°16' W 122°22'0 0.0
2014-Dec-08 22:21N 47°16' W 122°22'0 0.0
2014-Dec-08 21:27N 47°16' W 122°22'0 0.0
2014-Dec-08 20:27N 47°16' W 122°22'0 0.0
2014-Dec-08 19:09N 47°16' W 122°22'0 0.0
2014-Dec-08 18:33N 47°16' W 122°22'0 0.0
2014-Dec-08 17:21N 47°16' W 122°22'0 0.0
2014-Dec-08 16:15N 47°16' W 122°22'0 0.0
2014-Dec-08 15:21N 47°16' W 122°22'0 0.0
2014-Dec-08 14:27N 47°16' W 122°22'0 0.0
2014-Dec-08 00:14N 47°16' W 122°22'0 0.0
2014-Dec-07 22:26N 47°16' W 122°22'0 0.0
2014-Dec-07 21:14N 47°16' W 122°22'0 0.0
2014-Dec-07 18:08N 47°16' W 122°22'0 0.0
2014-Dec-07 17:32N 47°16' W 122°22'0 0.0
2014-Dec-07 16:32N 47°16' W 122°22'0 0.0
2014-Dec-07 15:26N 47°16' W 122°22'0 0.0
2014-Dec-07 12:32N 47°16' W 122°22'0 0.0
2014-Dec-07 11:05N 47°16' W 122°22'0 0.0
2014-Dec-07 10:29N 47°16' W 122°22'0 0.0
2014-Dec-07 09:17N 47°16' W 122°22'0 0.0
2014-Dec-07 08:29N 47°16' W 122°22'0 0.0
2014-Dec-07 07:29N 47°16' W 122°22'0 0.0
2014-Dec-07 05:05N 47°16' W 122°22'0 0.0
2014-Dec-07 03:29N 47°16' W 122°22'0 0.0
2014-Dec-07 00:27N 47°16' W 122°22'0 0.0
2014-Dec-06 20:31N 47°16' W 122°22'0 0.0
2014-Dec-06 19:33N 47°16' W 122°22'0 0.0
2014-Dec-06 18:33N 47°16' W 122°22'1 1.3
2014-Dec-06 17:29N 47°16' W 122°24'1 0.6
2014-Dec-06 16:33N 47°16' W 122°24'2 1.9
2014-Dec-06 15:31N 47°16' W 122°22'0 0.1
2014-Dec-06 14:27N 47°16' W 122°22'0 0.0
2014-Dec-06 12:21N 47°16' W 122°22'0 0.0
2014-Dec-05 11:26N 47°16' W 122°22'0 0.0
2014-Dec-05 10:32N 47°16' W 122°22'0 0.0
2014-Dec-05 09:05N 47°16' W 122°22'  

Dump ship's entire track history